TRA97Q EHAM-LPPT
Flight info
| Callsign | TRA97Q |
|---|---|
| Flight time | N/A |
| Altitude | 35000 |
| Route | WOODY N872 MEDIL DCT KOVIN DCT NIDUV DCT KIHVI UN872 ERIGA UZ218 FUJTI DCT ATLEN DCT ABUPI DCT XAMAX |
| Aircraft | A21N/M-SDE2E3FGHIJ1RWXY/LB1 |
Departure
| Time | 2026-04-30 19:11 |
|---|---|
| Airport | Amsterdam Airport Schiphol (EHAM) |
Arrival
| Time | N/A |
|---|---|
| Airport | Lisbon Humberto Delgado Airport (LPPT) |
| Time | Latitude | Longitude | Altitude | Speed | Heading |
|---|---|---|---|---|---|
| 2026-04-30 18:42 | 52.30446 | 4.76332 | 2 ft | 0 kts | 238° |
| 2026-04-30 18:48 | 52.30446 | 4.76333 | 2 ft | 0 kts | 238° |
| 2026-04-30 18:56 | 52.30478 | 4.76379 | 2 ft | 4 kts | 182° |
| 2026-04-30 18:56 | 52.30497 | 4.76373 | 2 ft | 0 kts | 148° |
| 2026-04-30 18:59 | 52.30486 | 4.76384 | 2 ft | 7 kts | 148° |
| 2026-04-30 19:00 | 52.30349 | 4.76675 | 2 ft | 1 kts | 78° |
| 2026-04-30 19:00 | 52.30340 | 4.76705 | 2 ft | 6 kts | 127° |
| 2026-04-30 19:00 | 52.30361 | 4.76946 | 2 ft | 18 kts | 57° |
| 2026-04-30 19:01 | 52.30529 | 4.77390 | 2 ft | 21 kts | 59° |
| 2026-04-30 19:01 | 52.30592 | 4.77539 | 2 ft | 18 kts | 43° |
| 2026-04-30 19:02 | 52.30869 | 4.77609 | 2 ft | 24 kts | 4° |
| 2026-04-30 19:02 | 52.31170 | 4.77634 | 2 ft | 17 kts | 3° |
| 2026-04-30 19:03 | 52.31439 | 4.77636 | 2 ft | 20 kts | 339° |
| 2026-04-30 19:03 | 52.31573 | 4.77259 | 2 ft | 22 kts | 267° |
| 2026-04-30 19:04 | 52.31557 | 4.76745 | 2 ft | 19 kts | 267° |
| 2026-04-30 19:04 | 52.31555 | 4.76696 | 2 ft | 3 kts | 267° |
| 2026-04-30 19:05 | 52.31552 | 4.76594 | 2 ft | 6 kts | 267° |
| 2026-04-30 19:05 | 52.31539 | 4.76264 | 2 ft | 24 kts | 267° |
| 2026-04-30 19:06 | 52.31521 | 4.75692 | 2 ft | 27 kts | 267° |
| 2026-04-30 19:06 | 52.31512 | 4.75407 | 2 ft | 26 kts | 267° |
| 2026-04-30 19:06 | 52.31494 | 4.74848 | 2 ft | 20 kts | 267° |
| 2026-04-30 19:07 | 52.31537 | 4.74667 | 2 ft | 5 kts | 351° |
| 2026-04-30 19:07 | 52.31560 | 4.74663 | 2 ft | 0 kts | 356° |
| 2026-04-30 19:09 | 52.31567 | 4.74662 | 2 ft | 3 kts | 356° |
| 2026-04-30 19:09 | 52.31612 | 4.74659 | 2 ft | 10 kts | 1° |
| 2026-04-30 19:09 | 52.31667 | 4.74738 | 4 ft | 14 kts | 85° |
| 2026-04-30 19:10 | 52.31668 | 4.74763 | 2 ft | 3 kts | 86° |
| 2026-04-30 19:10 | 52.31700 | 4.75832 | 2 ft | 104 kts | 86° |
| 2026-04-30 19:11 | 52.31756 | 4.77338 | 1 ft | 157 kts | 87° |
| 2026-04-30 19:11 | 52.31862 | 4.80978 | 753 ft | 168 kts | 87° |
| 2026-04-30 19:11 | 52.31648 | 4.82677 | 1547 ft | 149 kts | 127° |
| 2026-04-30 19:12 | 52.30741 | 4.83602 | 2053 ft | 170 kts | 156° |
| 2026-04-30 19:12 | 52.29482 | 4.83999 | 2432 ft | 195 kts | 166° |
| 2026-04-30 19:12 | 52.28208 | 4.84276 | 3002 ft | 203 kts | 167° |
| 2026-04-30 19:13 | 52.25316 | 4.84828 | 4545 ft | 213 kts | 174° |
| 2026-04-30 19:13 | 52.22081 | 4.84780 | 5464 ft | 249 kts | 177° |
| 2026-04-30 19:13 | 52.20324 | 4.84722 | 6036 ft | 254 kts | 177° |
| 2026-04-30 19:14 | 52.18544 | 4.84667 | 6322 ft | 256 kts | 176° |
| 2026-04-30 19:14 | 52.16746 | 4.84620 | 6858 ft | 262 kts | 176° |
| 2026-04-30 19:14 | 52.14919 | 4.84576 | 7693 ft | 264 kts | 177° |
| 2026-04-30 19:14 | 52.13072 | 4.84534 | 8560 ft | 266 kts | 177° |
| 2026-04-30 19:15 | 52.11208 | 4.84494 | 9393 ft | 270 kts | 177° |
| 2026-04-30 19:15 | 52.07380 | 4.84415 | 10759 ft | 287 kts | 178° |
| 2026-04-30 19:15 | 52.05303 | 4.84378 | 11044 ft | 308 kts | 178° |
| 2026-04-30 19:16 | 52.03084 | 4.84262 | 11319 ft | 331 kts | 183° |
| 2026-04-30 19:16 | 52.00778 | 4.83311 | 11586 ft | 356 kts | 198° |
| 2026-04-30 19:16 | 51.96100 | 4.79734 | 12470 ft | 381 kts | 203° |
| 2026-04-30 19:17 | 51.93702 | 4.77813 | 13094 ft | 387 kts | 203° |
| 2026-04-30 19:17 | 51.88851 | 4.73972 | 14327 ft | 395 kts | 203° |
| 2026-04-30 19:17 | 51.86358 | 4.72015 | 14869 ft | 398 kts | 203° |
| 2026-04-30 19:18 | 51.82200 | 4.68765 | 15782 ft | 403 kts | 203° |
| 2026-04-30 19:18 | 51.78798 | 4.66115 | 16534 ft | 407 kts | 203° |
| 2026-04-30 19:18 | 51.76241 | 4.64127 | 17083 ft | 410 kts | 203° |
| 2026-04-30 19:19 | 51.73659 | 4.62122 | 17611 ft | 413 kts | 203° |
| 2026-04-30 19:19 | 51.71060 | 4.60107 | 18137 ft | 416 kts | 203° |
| 2026-04-30 19:19 | 51.65797 | 4.56035 | 19050 ft | 422 kts | 203° |
| 2026-04-30 19:20 | 51.63135 | 4.53979 | 19496 ft | 426 kts | 203° |
| 2026-04-30 19:20 | 51.60459 | 4.51915 | 19915 ft | 429 kts | 203° |
| 2026-04-30 19:20 | 51.55034 | 4.47739 | 20797 ft | 434 kts | 203° |
| 2026-04-30 19:21 | 51.52340 | 4.45669 | 21219 ft | 437 kts | 203° |
| 2026-04-30 19:21 | 51.46813 | 4.41432 | 22045 ft | 443 kts | 203° |
| 2026-04-30 19:22 | 51.41214 | 4.37152 | 22845 ft | 449 kts | 203° |
| 2026-04-30 19:22 | 51.32680 | 4.30658 | 24002 ft | 457 kts | 203° |
| 2026-04-30 19:23 | 51.23999 | 4.24072 | 25060 ft | 464 kts | 203° |
| 2026-04-30 19:24 | 51.18677 | 4.20043 | 25775 ft | 465 kts | 202° |
| 2026-04-30 19:24 | 51.15744 | 4.18116 | 26268 ft | 461 kts | 198° |
| 2026-04-30 19:24 | 51.09738 | 4.14640 | 27184 ft | 458 kts | 197° |
| 2026-04-30 19:25 | 51.00739 | 4.09722 | 28427 ft | 454 kts | 196° |
| 2026-04-30 19:26 | 50.94762 | 4.06483 | 29235 ft | 452 kts | 196° |
| 2026-04-30 19:26 | 50.88835 | 4.03263 | 30020 ft | 450 kts | 197° |
| 2026-04-30 19:26 | 50.85887 | 4.01552 | 30384 ft | 450 kts | 198° |
| 2026-04-30 19:27 | 50.80087 | 3.97865 | 30961 ft | 449 kts | 199° |
| 2026-04-30 19:27 | 50.74345 | 3.94117 | 31482 ft | 449 kts | 199° |
| 2026-04-30 19:28 | 50.71461 | 3.92248 | 31761 ft | 448 kts | 199° |
| 2026-04-30 19:28 | 50.65692 | 3.88549 | 32283 ft | 446 kts | 199° |
| 2026-04-30 19:29 | 50.59917 | 3.84879 | 32760 ft | 445 kts | 199° |
| 2026-04-30 19:29 | 50.57046 | 3.83048 | 33001 ft | 445 kts | 200° |
| 2026-04-30 19:30 | 50.48516 | 3.77277 | 33290 ft | 446 kts | 201° |
| 2026-04-30 19:30 | 50.42847 | 3.73377 | 33779 ft | 443 kts | 201° |
| 2026-04-30 19:31 | 50.37235 | 3.69547 | 34210 ft | 442 kts | 201° |
| 2026-04-30 19:31 | 50.34421 | 3.67637 | 34404 ft | 440 kts | 201° |
| 2026-04-30 19:31 | 50.28799 | 3.63834 | 34729 ft | 440 kts | 201° |
| 2026-04-30 19:32 | 50.25990 | 3.61940 | 34865 ft | 440 kts | 201° |
| 2026-04-30 19:32 | 50.23178 | 3.60046 | 35002 ft | 439 kts | 201° |
| 2026-04-30 19:32 | 50.20374 | 3.58160 | 35136 ft | 439 kts | 201° |
| 2026-04-30 19:32 | 50.17560 | 3.56269 | 35221 ft | 441 kts | 201° |
| 2026-04-30 19:33 | 50.11929 | 3.52490 | 35231 ft | 440 kts | 201° |
| 2026-04-30 19:33 | 50.06301 | 3.48723 | 35227 ft | 440 kts | 201° |
| 2026-04-30 19:34 | 50.00671 | 3.44965 | 35220 ft | 440 kts | 201° |
| 2026-04-30 19:35 | 49.92223 | 3.39343 | 35221 ft | 440 kts | 201° |
| 2026-04-30 19:35 | 49.86621 | 3.35627 | 35222 ft | 440 kts | 200° |
| 2026-04-30 19:36 | 49.80983 | 3.31897 | 35219 ft | 440 kts | 200° |
| 2026-04-30 19:36 | 49.72564 | 3.26344 | 35214 ft | 440 kts | 200° |
| 2026-04-30 19:37 | 49.66889 | 3.22613 | 35208 ft | 440 kts | 200° |
| 2026-04-30 19:37 | 49.61282 | 3.18936 | 35209 ft | 440 kts | 200° |
| 2026-04-30 19:38 | 49.56555 | 3.15843 | 35205 ft | 440 kts | 200° |
| 2026-04-30 19:38 | 49.50276 | 3.10691 | 35205 ft | 443 kts | 215° |
| 2026-04-30 19:39 | 49.46661 | 3.05060 | 35204 ft | 448 kts | 232° |
| 2026-04-30 19:39 | 49.43339 | 2.96902 | 35201 ft | 452 kts | 237° |
| 2026-04-30 19:40 | 49.40251 | 2.88443 | 35201 ft | 453 kts | 238° |
| 2026-04-30 19:40 | 49.37178 | 2.80002 | 35192 ft | 453 kts | 238° |
| 2026-04-30 19:41 | 49.34098 | 2.71653 | 35192 ft | 453 kts | 238° |
| 2026-04-30 19:41 | 49.31088 | 2.63171 | 35185 ft | 452 kts | 239° |
| 2026-04-30 19:42 | 49.28124 | 2.54689 | 35184 ft | 451 kts | 239° |
| 2026-04-30 19:42 | 49.25155 | 2.46238 | 35180 ft | 450 kts | 239° |
| 2026-04-30 19:43 | 49.22167 | 2.37799 | 35180 ft | 450 kts | 238° |
| 2026-04-30 19:44 | 49.17638 | 2.25219 | 35162 ft | 449 kts | 238° |
| 2026-04-30 19:44 | 49.14579 | 2.16955 | 35160 ft | 449 kts | 238° |
| 2026-04-30 19:45 | 49.11496 | 2.08662 | 35158 ft | 449 kts | 238° |
| 2026-04-30 19:45 | 49.08615 | 2.00200 | 35156 ft | 450 kts | 242° |
| 2026-04-30 19:46 | 49.05968 | 1.91541 | 35155 ft | 451 kts | 243° |
| 2026-04-30 19:46 | 49.03351 | 1.82827 | 35165 ft | 452 kts | 243° |
| 2026-04-30 19:47 | 49.00728 | 1.74114 | 35170 ft | 452 kts | 243° |
| 2026-04-30 19:47 | 48.98099 | 1.65433 | 35162 ft | 450 kts | 243° |
| 2026-04-30 19:48 | 48.95480 | 1.56831 | 35157 ft | 450 kts | 243° |
| 2026-04-30 19:48 | 48.92837 | 1.48187 | 35157 ft | 450 kts | 243° |
| 2026-04-30 19:49 | 48.90195 | 1.39574 | 35147 ft | 450 kts | 243° |
| 2026-04-30 19:49 | 48.86217 | 1.26660 | 35149 ft | 449 kts | 243° |
| 2026-04-30 19:50 | 48.83578 | 1.18129 | 35146 ft | 449 kts | 243° |
| 2026-04-30 19:50 | 48.80916 | 1.09555 | 35143 ft | 449 kts | 243° |
| 2026-04-30 19:51 | 48.78249 | 1.00990 | 35141 ft | 449 kts | 243° |
| 2026-04-30 19:51 | 48.75579 | 0.92449 | 35140 ft | 449 kts | 243° |
| 2026-04-30 19:52 | 48.72557 | 0.84189 | 35140 ft | 447 kts | 238° |
| 2026-04-30 19:52 | 48.69357 | 0.76187 | 35137 ft | 446 kts | 237° |
| 2026-04-30 19:53 | 48.66098 | 0.68190 | 35140 ft | 446 kts | 237° |
| 2026-04-30 19:53 | 48.62837 | 0.60208 | 35138 ft | 446 kts | 237° |
| 2026-04-30 19:54 | 48.59581 | 0.52239 | 35138 ft | 446 kts | 237° |
| 2026-04-30 19:54 | 48.56318 | 0.44268 | 35132 ft | 446 kts | 237° |
| 2026-04-30 19:55 | 48.53053 | 0.36312 | 35132 ft | 445 kts | 237° |
| 2026-04-30 19:55 | 48.49790 | 0.28387 | 35132 ft | 445 kts | 237° |
| 2026-04-30 19:56 | 48.46517 | 0.20462 | 35135 ft | 445 kts | 237° |
| 2026-04-30 19:56 | 48.43269 | 0.12620 | 35132 ft | 445 kts | 237° |
| 2026-04-30 19:57 | 48.39982 | 0.04710 | 35130 ft | 445 kts | 237° |
| 2026-04-30 19:57 | 48.36691 | -0.03183 | 35131 ft | 444 kts | 236° |
| 2026-04-30 19:58 | 48.33167 | -0.10771 | 35133 ft | 441 kts | 232° |
| 2026-04-30 19:58 | 48.29466 | -0.18129 | 35133 ft | 441 kts | 232° |
| 2026-04-30 19:59 | 48.25776 | -0.25422 | 35132 ft | 441 kts | 232° |
| 2026-04-30 20:00 | 48.20176 | -0.36385 | 35136 ft | 441 kts | 232° |
| 2026-04-30 20:00 | 48.16441 | -0.43669 | 35131 ft | 441 kts | 231° |
| 2026-04-30 20:01 | 48.10833 | -0.54595 | 35130 ft | 441 kts | 231° |
| 2026-04-30 20:01 | 48.07108 | -0.61831 | 35130 ft | 441 kts | 232° |
| 2026-04-30 20:02 | 48.01487 | -0.72711 | 35130 ft | 441 kts | 231° |
| 2026-04-30 20:03 | 47.95842 | -0.83592 | 35129 ft | 441 kts | 231° |
| 2026-04-30 20:03 | 47.92076 | -0.90829 | 35131 ft | 443 kts | 231° |
| 2026-04-30 20:04 | 47.88290 | -0.98085 | 35131 ft | 443 kts | 231° |
| 2026-04-30 20:05 | 47.82630 | -1.08895 | 35130 ft | 443 kts | 231° |
| 2026-04-30 20:05 | 47.76922 | -1.19753 | 35132 ft | 446 kts | 231° |
| 2026-04-30 20:06 | 47.73105 | -1.26989 | 35134 ft | 448 kts | 231° |
| 2026-04-30 20:06 | 47.69262 | -1.34257 | 35129 ft | 447 kts | 231° |
| 2026-04-30 20:07 | 47.65407 | -1.41528 | 35129 ft | 447 kts | 231° |
| 2026-04-30 20:08 | 47.59618 | -1.52358 | 35128 ft | 447 kts | 230° |
| 2026-04-30 20:08 | 47.55543 | -1.59256 | 35130 ft | 448 kts | 227° |
| 2026-04-30 20:09 | 47.51341 | -1.66069 | 35132 ft | 448 kts | 227° |
| 2026-04-30 20:09 | 47.45074 | -1.76258 | 35122 ft | 443 kts | 227° |
| 2026-04-30 20:10 | 47.38879 | -1.86377 | 35133 ft | 443 kts | 227° |
| 2026-04-30 20:11 | 47.32040 | -1.95384 | 35131 ft | 442 kts | 213° |
| 2026-04-30 20:11 | 47.26835 | -2.00224 | 35128 ft | 442 kts | 211° |
| 2026-04-30 20:12 | 47.18915 | -2.07212 | 35117 ft | 442 kts | 212° |
| 2026-04-30 20:13 | 47.13663 | -2.11850 | 35133 ft | 443 kts | 212° |
| 2026-04-30 20:13 | 47.08375 | -2.16541 | 35133 ft | 444 kts | 212° |
| 2026-04-30 20:14 | 47.03083 | -2.21233 | 35134 ft | 444 kts | 212° |
| 2026-04-30 20:14 | 46.97792 | -2.25913 | 35135 ft | 444 kts | 212° |
| 2026-04-30 20:15 | 46.92500 | -2.30581 | 35142 ft | 445 kts | 213° |
| 2026-04-30 20:15 | 46.87188 | -2.35256 | 35143 ft | 445 kts | 213° |
| 2026-04-30 20:16 | 46.81877 | -2.39923 | 35140 ft | 445 kts | 213° |
| 2026-04-30 20:16 | 46.76565 | -2.44582 | 35143 ft | 445 kts | 213° |
| 2026-04-30 20:17 | 46.71297 | -2.49193 | 35147 ft | 444 kts | 213° |
| 2026-04-30 20:17 | 46.65994 | -2.53822 | 35146 ft | 443 kts | 213° |
| 2026-04-30 20:18 | 46.60700 | -2.58434 | 35149 ft | 443 kts | 213° |
| 2026-04-30 20:18 | 46.55397 | -2.63042 | 35149 ft | 444 kts | 213° |
| 2026-04-30 20:19 | 46.50097 | -2.67638 | 35151 ft | 444 kts | 213° |
| 2026-04-30 20:19 | 46.44791 | -2.72227 | 35152 ft | 444 kts | 213° |
| 2026-04-30 20:20 | 46.39513 | -2.76783 | 35150 ft | 444 kts | 213° |
| 2026-04-30 20:20 | 46.34198 | -2.81360 | 35150 ft | 444 kts | 213° |
| 2026-04-30 20:21 | 46.28896 | -2.85914 | 35154 ft | 442 kts | 213° |
| 2026-04-30 20:21 | 46.23961 | -2.91142 | 35154 ft | 439 kts | 221° |
| 2026-04-30 20:22 | 46.19265 | -2.96785 | 35153 ft | 439 kts | 223° |
| 2026-04-30 20:22 | 46.14608 | -3.02502 | 35157 ft | 439 kts | 223° |
| 2026-04-30 20:23 | 46.09979 | -3.08168 | 35158 ft | 439 kts | 223° |
| 2026-04-30 20:23 | 46.05313 | -3.13843 | 35160 ft | 438 kts | 223° |
| 2026-04-30 20:24 | 46.00646 | -3.19497 | 35158 ft | 437 kts | 222° |
| 2026-04-30 20:24 | 45.95994 | -3.25116 | 35160 ft | 436 kts | 222° |
| 2026-04-30 20:25 | 45.89020 | -3.33517 | 35159 ft | 436 kts | 222° |
| 2026-04-30 20:26 | 45.82051 | -3.41886 | 35162 ft | 435 kts | 222° |